PWSweather.com
Personal Weather Stations
Station Observations
WXGLH1124
Southern Oaks, Indianapolis, IN 46217

Southern OaksIndianapolis, IN 46217

Lat: 39.65113, Lon: -86.16866

Elevation: 720

Station Type: Vantage Pro2

High Low Average
Temperature 33.7°F0.9°C 20.7°F-6.3°C 27.2°F-2.7°C
Dew Point 31.4°F-0.3°C 15.9°F-8.9°C 21.2°F-6.0°C
Winds 16.0 mph 25.7 kmh Calm Calm 4.0 mph WSW6.4 kmh WSW
Wind Gusts 18.0 mph29.0 kmh -- 7.0 mph11.3 kmh
Humidity 91% 67% 78%
Pressure 30.25 in1024.4 mb 29.98 in1015.2 mb -
Precipitation 0.00 in0.0 mm - -
Hour Temp Dew Point Humidity Winds Wind Gusts Pressure Precip Precip Rate Daily Precip Total
12:05 AM 22.7°F-5.2°C 13.4°F-10.3°C 67% 7.0 mph WSW11.3 kmh WSW 10.0 mph16.1 kmh 30.23 in1023.7 mb 0.00 in0.0 mm 0.00 in0.0 mm 0.00 in0.0 mm
12:10 AM 22.7°F-5.2°C 13.7°F-10.2°C 68% 3.0 mph SSW4.8 kmh SSW 8.0 mph12.9 kmh 30.23 in1023.7 mb 0.00 in0.0 mm 0.00 in0.0 mm 0.00 in0.0 mm
12:15 AM 22.7°F-5.2°C 13.7°F-10.2°C 68% 3.0 mph SW4.8 kmh SW 7.0 mph11.3 kmh 30.23 in1023.7 mb 0.00 in0.0 mm 0.00 in0.0 mm 0.00 in0.0 mm
12:20 AM 22.8°F-5.1°C 14.2°F-9.9°C 69% 5.0 mph SW8.0 kmh SW 9.0 mph14.5 kmh 30.22 in1023.4 mb 0.00 in0.0 mm 0.00 in0.0 mm 0.00 in0.0 mm
12:25 AM 22.9°F-5.1°C 14.6°F-9.7°C 70% 3.0 mph WSW4.8 kmh WSW 4.0 mph6.4 kmh 30.22 in1023.4 mb 0.00 in0.0 mm 0.00 in0.0 mm 0.00 in0.0 mm
12:30 AM 22.9°F-5.1°C 14.9°F-9.5°C 71% 3.0 mph SW4.8 kmh SW 6.0 mph9.7 kmh 30.23 in1023.7 mb 0.00 in0.0 mm 0.00 in0.0 mm 0.00 in0.0 mm
12:35 AM 22.9°F-5.1°C 15.2°F-9.3°C 72% 4.0 mph SSW6.4 kmh SSW 11.0 mph17.7 kmh 30.22 in1023.4 mb 0.00 in0.0 mm 0.00 in0.0 mm 0.00 in0.0 mm
12:40 AM 22.9°F-5.1°C 15.6°F-9.1°C 73% 3.0 mph SW4.8 kmh SW 6.0 mph9.7 kmh 30.22 in1023.4 mb 0.00 in0.0 mm 0.00 in0.0 mm 0.00 in0.0 mm
12:45 AM 22.9°F-5.1°C 15.6°F-9.1°C 73% 6.0 mph SW9.7 kmh SW 8.0 mph12.9 kmh 30.22 in1023.4 mb 0.00 in0.0 mm 0.00 in0.0 mm 0.00 in0.0 mm
12:50 AM 22.9°F-5.1°C 15.6°F-9.1°C 73% 1.0 mph SW1.6 kmh SW 4.0 mph6.4 kmh 30.22 in1023.4 mb 0.00 in0.0 mm 0.00 in0.0 mm 0.00 in0.0 mm
12:55 AM 23.0°F-5.0°C 16.0°F-8.9°C 74% 6.0 mph SW9.7 kmh SW 10.0 mph16.1 kmh 30.22 in1023.4 mb 0.00 in0.0 mm 0.00 in0.0 mm 0.00 in0.0 mm
12:59 AM 23.0°F-5.0°C 16.0°F-8.9°C 74% 3.0 mph SW4.8 kmh SW 8.0 mph12.9 kmh 30.22 in1023.4 mb 0.00 in0.0 mm 0.00 in0.0 mm 0.00 in0.0 mm
01:05 AM 23.0°F-5.0°C 16.3°F-8.7°C 75% 1.0 mph SSW1.6 kmh SSW 3.0 mph4.8 kmh 30.22 in1023.4 mb 0.00 in0.0 mm 0.00 in0.0 mm 0.00 in0.0 mm
01:09 AM 23.0°F-5.0°C 16.3°F-8.7°C 75% 3.0 mph SSW4.8 kmh SSW 4.0 mph6.4 kmh 30.22 in1023.4 mb 0.00 in0.0 mm 0.00 in0.0 mm 0.00 in0.0 mm
01:15 AM 23.1°F-4.9°C 16.4°F-8.7°C 75% 2.0 mph SW3.2 kmh SW 7.0 mph11.3 kmh 30.22 in1023.4 mb 0.00 in0.0 mm 0.00 in0.0 mm 0.00 in0.0 mm
01:20 AM 23.2°F-4.9°C 16.5°F-8.6°C 75% 5.0 mph SSW8.0 kmh SSW 5.0 mph8.0 kmh 30.22 in1023.4 mb 0.00 in0.0 mm 0.00 in0.0 mm 0.00 in0.0 mm
01:24 AM 23.3°F-4.8°C 16.6°F-8.6°C 75% 2.0 mph SW3.2 kmh SW 9.0 mph14.5 kmh 30.22 in1023.4 mb 0.00 in0.0 mm 0.00 in0.0 mm 0.00 in0.0 mm
01:30 AM 23.4°F-4.8°C 16.4°F-8.7°C 74% 3.0 mph SW4.8 kmh SW 7.0 mph11.3 kmh 30.22 in1023.4 mb 0.00 in0.0 mm 0.00 in0.0 mm 0.00 in0.0 mm
01:35 AM 23.5°F-4.7°C 16.5°F-8.6°C 74% 4.0 mph SW6.4 kmh SW 6.0 mph9.7 kmh 30.22 in1023.4 mb 0.00 in0.0 mm 0.00 in0.0 mm 0.00 in0.0 mm
01:40 AM 23.5°F-4.7°C 16.1°F-8.8°C 73% 3.0 mph SW4.8 kmh SW 7.0 mph11.3 kmh 30.22 in1023.4 mb 0.00 in0.0 mm 0.00 in0.0 mm 0.00 in0.0 mm
01:45 AM 23.6°F-4.7°C 16.5°F-8.6°C 74% 4.0 mph SW6.4 kmh SW 5.0 mph8.0 kmh 30.22 in1023.4 mb 0.00 in0.0 mm 0.00 in0.0 mm 0.00 in0.0 mm
01:50 AM 23.6°F-4.7°C 16.5°F-8.6°C 74% 1.0 mph SW1.6 kmh SW 5.0 mph8.0 kmh 30.22 in1023.4 mb 0.00 in0.0 mm 0.00 in0.0 mm 0.00 in0.0 mm
01:55 AM 23.6°F-4.7°C 16.2°F-8.8°C 73% 4.0 mph SW6.4 kmh SW 10.0 mph16.1 kmh 30.22 in1023.4 mb 0.00 in0.0 mm 0.00 in0.0 mm 0.00 in0.0 mm
02:00 AM 23.8°F-4.6°C 16.4°F-8.7°C 73% 3.0 mph SSW4.8 kmh SSW 10.0 mph16.1 kmh 30.22 in1023.4 mb 0.00 in0.0 mm 0.00 in0.0 mm 0.00 in0.0 mm
02:05 AM 23.9°F-4.5°C 16.2°F-8.8°C 72% 10.0 mph SW16.1 kmh SW 11.0 mph17.7 kmh 30.22 in1023.4 mb 0.00 in0.0 mm 0.00 in0.0 mm 0.00 in0.0 mm
02:10 AM 24.1°F-4.4°C 16.1°F-8.8°C 71% 9.0 mph SW14.5 kmh SW 11.0 mph17.7 kmh 30.22 in1023.4 mb 0.00 in0.0 mm 0.00 in0.0 mm 0.00 in0.0 mm
02:15 AM 24.3°F-4.3°C 15.9°F-8.9°C 70% 2.0 mph SW3.2 kmh SW 13.0 mph20.9 kmh 30.22 in1023.4 mb 0.00 in0.0 mm 0.00 in0.0 mm 0.00 in0.0 mm
02:20 AM 24.3°F-4.3°C 15.9°F-8.9°C 70% 1.0 mph SW1.6 kmh SW 6.0 mph9.7 kmh 30.22 in1023.4 mb 0.00 in0.0 mm 0.00 in0.0 mm 0.00 in0.0 mm
02:25 AM 24.2°F-4.3°C 16.2°F-8.8°C 71% 6.0 mph SW9.7 kmh SW 9.0 mph14.5 kmh 30.21 in1023.0 mb 0.00 in0.0 mm 0.00 in0.0 mm 0.00 in0.0 mm
02:30 AM 24.2°F-4.3°C 16.2°F-8.8°C 71% 3.0 mph SW4.8 kmh SW 6.0 mph9.7 kmh 30.21 in1023.0 mb 0.00 in0.0 mm 0.00 in0.0 mm 0.00 in0.0 mm
02:35 AM 24.3°F-4.3°C 16.3°F-8.7°C 71% 4.0 mph SW6.4 kmh SW 8.0 mph12.9 kmh 30.21 in1023.0 mb 0.00 in0.0 mm 0.00 in0.0 mm 0.00 in0.0 mm
02:40 AM 24.3°F-4.3°C 16.3°F-8.7°C 71% 3.0 mph SW4.8 kmh SW 4.0 mph6.4 kmh 30.21 in1023.0 mb 0.00 in0.0 mm 0.00 in0.0 mm 0.00 in0.0 mm
02:45 AM 24.5°F-4.2°C 16.1°F-8.8°C 70% 6.0 mph SW9.7 kmh SW 13.0 mph20.9 kmh 30.21 in1023.0 mb 0.00 in0.0 mm 0.00 in0.0 mm 0.00 in0.0 mm
02:50 AM 24.6°F-4.1°C 15.9°F-8.9°C 69% 6.0 mph WSW9.7 kmh WSW 9.0 mph14.5 kmh 30.20 in1022.7 mb 0.00 in0.0 mm 0.00 in0.0 mm 0.00 in0.0 mm
02:54 AM 24.8°F-4.0°C 16.1°F-8.8°C 69% 5.0 mph WSW8.0 kmh WSW 10.0 mph16.1 kmh 30.20 in1022.7 mb 0.00 in0.0 mm 0.00 in0.0 mm 0.00 in0.0 mm
03:00 AM 24.8°F-4.0°C 16.1°F-8.8°C 69% 5.0 mph SW8.0 kmh SW 11.0 mph17.7 kmh 30.20 in1022.7 mb 0.00 in0.0 mm 0.00 in0.0 mm 0.00 in0.0 mm
03:05 AM 24.7°F-4.1°C 16.0°F-8.9°C 69% 2.0 mph SSW3.2 kmh SSW 8.0 mph12.9 kmh 30.20 in1022.7 mb 0.00 in0.0 mm 0.00 in0.0 mm 0.00 in0.0 mm
03:10 AM 24.7°F-4.1°C 16.0°F-8.9°C 69% 4.0 mph SW6.4 kmh SW 7.0 mph11.3 kmh 30.20 in1022.7 mb 0.00 in0.0 mm 0.00 in0.0 mm 0.00 in0.0 mm
03:15 AM 24.8°F-4.0°C 16.1°F-8.8°C 69% 5.0 mph WSW8.0 kmh WSW 10.0 mph16.1 kmh 30.20 in1022.7 mb 0.00 in0.0 mm 0.00 in0.0 mm 0.00 in0.0 mm
03:20 AM 24.8°F-4.0°C 16.1°F-8.8°C 69% 1.0 mph SW1.6 kmh SW 8.0 mph12.9 kmh 30.20 in1022.7 mb 0.00 in0.0 mm 0.00 in0.0 mm 0.00 in0.0 mm
03:25 AM 24.8°F-4.0°C 16.4°F-8.7°C 70% 2.0 mph SW3.2 kmh SW 4.0 mph6.4 kmh 30.20 in1022.7 mb 0.00 in0.0 mm 0.00 in0.0 mm 0.00 in0.0 mm
03:30 AM 24.9°F-3.9°C 16.5°F-8.6°C 70% 5.0 mph SW8.0 kmh SW 6.0 mph9.7 kmh 30.21 in1023.0 mb 0.00 in0.0 mm 0.00 in0.0 mm 0.00 in0.0 mm
03:35 AM 25.0°F-3.9°C 16.6°F-8.6°C 70% Calm Calm 6.0 mph9.7 kmh 30.21 in1023.0 mb 0.00 in0.0 mm 0.00 in0.0 mm 0.00 in0.0 mm
03:40 AM 25.1°F-3.8°C 16.7°F-8.5°C 70% 5.0 mph SW8.0 kmh SW 8.0 mph12.9 kmh 30.21 in1023.0 mb 0.00 in0.0 mm 0.00 in0.0 mm 0.00 in0.0 mm
03:45 AM 25.2°F-3.8°C 16.8°F-8.4°C 70% 8.0 mph WSW12.9 kmh WSW 8.0 mph12.9 kmh 30.21 in1023.0 mb 0.00 in0.0 mm 0.00 in0.0 mm 0.00 in0.0 mm
03:49 AM 25.2°F-3.8°C 16.5°F-8.6°C 69% 3.0 mph WSW4.8 kmh WSW 8.0 mph12.9 kmh 30.21 in1023.0 mb 0.00 in0.0 mm 0.00 in0.0 mm 0.00 in0.0 mm
03:55 AM 25.3°F-3.7°C 16.6°F-8.6°C 69% 8.0 mph SW12.9 kmh SW 10.0 mph16.1 kmh 30.21 in1023.0 mb 0.00 in0.0 mm 0.00 in0.0 mm 0.00 in0.0 mm
04:00 AM 25.3°F-3.7°C 16.9°F-8.4°C 70% 6.0 mph WNW9.7 kmh WNW 11.0 mph17.7 kmh 30.21 in1023.0 mb 0.00 in0.0 mm 0.00 in0.0 mm 0.00 in0.0 mm
04:04 AM 25.4°F-3.7°C 17.0°F-8.3°C 70% 5.0 mph SW8.0 kmh SW 7.0 mph11.3 kmh 30.21 in1023.0 mb 0.00 in0.0 mm 0.00 in0.0 mm 0.00 in0.0 mm
04:10 AM 25.4°F-3.7°C 17.0°F-8.3°C 70% 7.0 mph SW11.3 kmh SW 11.0 mph17.7 kmh 30.21 in1023.0 mb 0.00 in0.0 mm 0.00 in0.0 mm 0.00 in0.0 mm
04:15 AM 25.4°F-3.7°C 17.0°F-8.3°C 70% 3.0 mph SSW4.8 kmh SSW 8.0 mph12.9 kmh 30.21 in1023.0 mb 0.00 in0.0 mm 0.00 in0.0 mm 0.00 in0.0 mm
04:20 AM 25.4°F-3.7°C 17.0°F-8.3°C 70% 6.0 mph SW9.7 kmh SW 9.0 mph14.5 kmh 30.21 in1023.0 mb 0.00 in0.0 mm 0.00 in0.0 mm 0.00 in0.0 mm
04:24 AM 25.5°F-3.6°C 17.4°F-8.1°C 71% 5.0 mph SW8.0 kmh SW 7.0 mph11.3 kmh 30.21 in1023.0 mb 0.00 in0.0 mm 0.00 in0.0 mm 0.00 in0.0 mm
04:30 AM 25.5°F-3.6°C 17.4°F-8.1°C 71% 16.0 mph SW25.7 kmh SW 16.0 mph25.7 kmh 30.21 in1023.0 mb 0.00 in0.0 mm 0.00 in0.0 mm 0.00 in0.0 mm
04:35 AM 25.6°F-3.6°C 17.5°F-8.1°C 71% 3.0 mph SW4.8 kmh SW 8.0 mph12.9 kmh 30.21 in1023.0 mb 0.00 in0.0 mm 0.00 in0.0 mm 0.00 in0.0 mm
04:40 AM 25.6°F-3.6°C 17.5°F-8.1°C 71% 4.0 mph WSW6.4 kmh WSW 6.0 mph9.7 kmh 30.21 in1023.0 mb 0.00 in0.0 mm 0.00 in0.0 mm 0.00 in0.0 mm
04:45 AM 25.5°F-3.6°C 17.4°F-8.1°C 71% Calm Calm 9.0 mph14.5 kmh 30.21 in1023.0 mb 0.00 in0.0 mm 0.00 in0.0 mm 0.00 in0.0 mm
04:50 AM 25.6°F-3.6°C 17.8°F-7.9°C 72% 3.0 mph SW4.8 kmh SW 5.0 mph8.0 kmh 30.20 in1022.7 mb 0.00 in0.0 mm 0.00 in0.0 mm 0.00 in0.0 mm
04:55 AM 25.6°F-3.6°C 17.8°F-7.9°C 72% 4.0 mph SW6.4 kmh SW 11.0 mph17.7 kmh 30.20 in1022.7 mb 0.00 in0.0 mm 0.00 in0.0 mm 0.00 in0.0 mm
05:00 AM 25.6°F-3.6°C 17.8°F-7.9°C 72% 6.0 mph SW9.7 kmh SW 6.0 mph9.7 kmh 30.20 in1022.7 mb 0.00 in0.0 mm 0.00 in0.0 mm 0.00 in0.0 mm
05:05 AM 25.6°F-3.6°C 17.8°F-7.9°C 72% 6.0 mph SW9.7 kmh SW 9.0 mph14.5 kmh 30.20 in1022.7 mb 0.00 in0.0 mm 0.00 in0.0 mm 0.00 in0.0 mm
05:10 AM 25.6°F-3.6°C 18.2°F-7.7°C 73% 3.0 mph SW4.8 kmh SW 5.0 mph8.0 kmh 30.20 in1022.7 mb 0.00 in0.0 mm 0.00 in0.0 mm 0.00 in0.0 mm
05:15 AM 25.7°F-3.5°C 18.6°F-7.4°C 74% 4.0 mph SW6.4 kmh SW 6.0 mph9.7 kmh 30.20 in1022.7 mb 0.00 in0.0 mm 0.00 in0.0 mm 0.00 in0.0 mm
05:20 AM 25.9°F-3.4°C 18.8°F-7.3°C 74% 3.0 mph SW4.8 kmh SW 6.0 mph9.7 kmh 30.20 in1022.7 mb 0.00 in0.0 mm 0.00 in0.0 mm 0.00 in0.0 mm
05:24 AM 25.9°F-3.4°C 18.8°F-7.3°C 74% 4.0 mph WSW6.4 kmh WSW 7.0 mph11.3 kmh 30.20 in1022.7 mb 0.00 in0.0 mm 0.00 in0.0 mm 0.00 in0.0 mm
05:30 AM 25.9°F-3.4°C 18.8°F-7.3°C 74% 5.0 mph SW8.0 kmh SW 8.0 mph12.9 kmh 30.20 in1022.7 mb 0.00 in0.0 mm 0.00 in0.0 mm 0.00 in0.0 mm
05:35 AM 26.0°F-3.3°C 19.2°F-7.1°C 75% 3.0 mph SW4.8 kmh SW 6.0 mph9.7 kmh 30.20 in1022.7 mb 0.00 in0.0 mm 0.00 in0.0 mm 0.00 in0.0 mm
05:40 AM 26.0°F-3.3°C 19.2°F-7.1°C 75% 3.0 mph SW4.8 kmh SW 6.0 mph9.7 kmh 30.20 in1022.7 mb 0.00 in0.0 mm 0.00 in0.0 mm 0.00 in0.0 mm
05:45 AM 26.0°F-3.3°C 19.2°F-7.1°C 75% 2.0 mph SW3.2 kmh SW 4.0 mph6.4 kmh 30.20 in1022.7 mb 0.00 in0.0 mm 0.00 in0.0 mm 0.00 in0.0 mm
05:50 AM 26.0°F-3.3°C 19.2°F-7.1°C 75% Calm Calm 5.0 mph8.0 kmh 30.20 in1022.7 mb 0.00 in0.0 mm 0.00 in0.0 mm 0.00 in0.0 mm
05:55 AM 26.0°F-3.3°C 19.2°F-7.1°C 75% 3.0 mph W4.8 kmh W 5.0 mph8.0 kmh 30.20 in1022.7 mb 0.00 in0.0 mm 0.00 in0.0 mm 0.00 in0.0 mm
06:00 AM 26.1°F-3.3°C 19.6°F-6.9°C 76% 1.0 mph WSW1.6 kmh WSW 5.0 mph8.0 kmh 30.21 in1023.0 mb 0.00 in0.0 mm 0.00 in0.0 mm 0.00 in0.0 mm
06:05 AM 26.1°F-3.3°C 19.6°F-6.9°C 76% Calm Calm 3.0 mph4.8 kmh 30.21 in1023.0 mb 0.00 in0.0 mm 0.00 in0.0 mm 0.00 in0.0 mm
06:10 AM 26.0°F-3.3°C 19.5°F-6.9°C 76% 1.0 mph WSW1.6 kmh WSW 3.0 mph4.8 kmh 30.21 in1023.0 mb 0.00 in0.0 mm 0.00 in0.0 mm 0.00 in0.0 mm
06:15 AM 26.0°F-3.3°C 19.5°F-6.9°C 76% 1.0 mph W1.6 kmh W 3.0 mph4.8 kmh 30.21 in1023.0 mb 0.00 in0.0 mm 0.00 in0.0 mm 0.00 in0.0 mm
06:20 AM 26.1°F-3.3°C 19.6°F-6.9°C 76% 1.0 mph W1.6 kmh W 6.0 mph9.7 kmh 30.21 in1023.0 mb 0.00 in0.0 mm 0.00 in0.0 mm 0.00 in0.0 mm
06:25 AM 26.2°F-3.2°C 20.3°F-6.5°C 78% Calm Calm 6.0 mph9.7 kmh 30.21 in1023.0 mb 0.00 in0.0 mm 0.00 in0.0 mm 0.00 in0.0 mm
06:30 AM 26.2°F-3.2°C 20.3°F-6.5°C 78% 3.0 mph WSW4.8 kmh WSW 5.0 mph8.0 kmh 30.21 in1023.0 mb 0.00 in0.0 mm 0.00 in0.0 mm 0.00 in0.0 mm
06:35 AM 26.1°F-3.3°C 19.9°F-6.7°C 77% Calm Calm 7.0 mph11.3 kmh 30.21 in1023.0 mb 0.00 in0.0 mm 0.00 in0.0 mm 0.00 in0.0 mm
06:40 AM 26.1°F-3.3°C 20.2°F-6.6°C 78% 3.0 mph WSW4.8 kmh WSW 4.0 mph6.4 kmh 30.21 in1023.0 mb 0.00 in0.0 mm 0.00 in0.0 mm 0.00 in0.0 mm
06:45 AM 26.1°F-3.3°C 20.2°F-6.6°C 78% 1.0 mph W1.6 kmh W 4.0 mph6.4 kmh 30.21 in1023.0 mb 0.00 in0.0 mm 0.00 in0.0 mm 0.00 in0.0 mm
06:50 AM 26.2°F-3.2°C 20.3°F-6.5°C 78% 4.0 mph WNW6.4 kmh WNW 4.0 mph6.4 kmh 30.22 in1023.4 mb 0.00 in0.0 mm 0.00 in0.0 mm 0.00 in0.0 mm
06:55 AM 26.1°F-3.3°C 20.2°F-6.6°C 78% 2.0 mph W3.2 kmh W 4.0 mph6.4 kmh 30.21 in1023.0 mb 0.00 in0.0 mm 0.00 in0.0 mm 0.00 in0.0 mm
07:00 AM 26.1°F-3.3°C 20.5°F-6.4°C 79% 6.0 mph W9.7 kmh W 7.0 mph11.3 kmh 30.21 in1023.0 mb 0.00 in0.0 mm 0.00 in0.0 mm 0.00 in0.0 mm
07:04 AM 26.1°F-3.3°C 20.5°F-6.4°C 79% 6.0 mph SW9.7 kmh SW 6.0 mph9.7 kmh 30.21 in1023.0 mb 0.00 in0.0 mm 0.00 in0.0 mm 0.00 in0.0 mm
07:10 AM 26.1°F-3.3°C 20.8°F-6.2°C 80% 7.0 mph SW11.3 kmh SW 7.0 mph11.3 kmh 30.21 in1023.0 mb 0.00 in0.0 mm 0.00 in0.0 mm 0.00 in0.0 mm
07:15 AM 26.1°F-3.3°C 21.1°F-6.1°C 81% 3.0 mph WSW4.8 kmh WSW 10.0 mph16.1 kmh 30.21 in1023.0 mb 0.00 in0.0 mm 0.00 in0.0 mm 0.00 in0.0 mm
07:20 AM 26.0°F-3.3°C 21.0°F-6.1°C 81% 4.0 mph WSW6.4 kmh WSW 7.0 mph11.3 kmh 30.21 in1023.0 mb 0.00 in0.0 mm 0.00 in0.0 mm 0.00 in0.0 mm
07:25 AM 26.1°F-3.3°C 21.1°F-6.1°C 81% Calm Calm 5.0 mph8.0 kmh 30.21 in1023.0 mb 0.00 in0.0 mm 0.00 in0.0 mm 0.00 in0.0 mm
07:30 AM 26.0°F-3.3°C 20.7°F-6.3°C 80% 3.0 mph WSW4.8 kmh WSW 11.0 mph17.7 kmh 30.21 in1023.0 mb 0.00 in0.0 mm 0.00 in0.0 mm 0.00 in0.0 mm
07:35 AM 26.0°F-3.3°C 21.0°F-6.1°C 81% 3.0 mph SW4.8 kmh SW 10.0 mph16.1 kmh 30.21 in1023.0 mb 0.00 in0.0 mm 0.00 in0.0 mm 0.00 in0.0 mm
07:40 AM 25.9°F-3.4°C 20.9°F-6.2°C 81% 1.0 mph W1.6 kmh W 9.0 mph14.5 kmh 30.21 in1023.0 mb 0.00 in0.0 mm 0.00 in0.0 mm 0.00 in0.0 mm
07:45 AM 26.0°F-3.3°C 21.3°F-5.9°C 82% 3.0 mph WSW4.8 kmh WSW 6.0 mph9.7 kmh 30.22 in1023.4 mb 0.00 in0.0 mm 0.00 in0.0 mm 0.00 in0.0 mm
07:50 AM 26.0°F-3.3°C 21.3°F-5.9°C 82% 3.0 mph WSW4.8 kmh WSW 8.0 mph12.9 kmh 30.22 in1023.4 mb 0.00 in0.0 mm 0.00 in0.0 mm 0.00 in0.0 mm
07:55 AM 26.0°F-3.3°C 21.3°F-5.9°C 82% Calm Calm 1.0 mph1.6 kmh 30.22 in1023.4 mb 0.00 in0.0 mm 0.00 in0.0 mm 0.00 in0.0 mm
08:00 AM 26.0°F-3.3°C 21.3°F-5.9°C 82% 2.0 mph SW3.2 kmh SW 9.0 mph14.5 kmh 30.22 in1023.4 mb 0.00 in0.0 mm 0.00 in0.0 mm 0.00 in0.0 mm
08:04 AM 25.9°F-3.4°C 21.2°F-6.0°C 82% 1.0 mph SW1.6 kmh SW 3.0 mph4.8 kmh 30.22 in1023.4 mb 0.00 in0.0 mm 0.00 in0.0 mm 0.00 in0.0 mm
08:10 AM 25.9°F-3.4°C 21.2°F-6.0°C 82% 3.0 mph W4.8 kmh W 4.0 mph6.4 kmh 30.22 in1023.4 mb 0.00 in0.0 mm 0.00 in0.0 mm 0.00 in0.0 mm
08:15 AM 26.0°F-3.3°C 21.3°F-5.9°C 82% Calm Calm 3.0 mph4.8 kmh 30.22 in1023.4 mb 0.00 in0.0 mm 0.00 in0.0 mm 0.00 in0.0 mm
08:20 AM 25.8°F-3.4°C 21.1°F-6.1°C 82% 3.0 mph NW4.8 kmh NW 5.0 mph8.0 kmh 30.22 in1023.4 mb 0.00 in0.0 mm 0.00 in0.0 mm 0.00 in0.0 mm
08:25 AM 25.3°F-3.7°C 20.6°F-6.3°C 82% 4.0 mph NNW6.4 kmh NNW 6.0 mph9.7 kmh 30.22 in1023.4 mb 0.00 in0.0 mm 0.00 in0.0 mm 0.00 in0.0 mm
08:30 AM 25.0°F-3.9°C 20.3°F-6.5°C 82% 2.0 mph NNW3.2 kmh NNW 3.0 mph4.8 kmh 30.23 in1023.7 mb 0.00 in0.0 mm 0.00 in0.0 mm 0.00 in0.0 mm
08:35 AM 24.6°F-4.1°C 19.9°F-6.7°C 82% 2.0 mph NW3.2 kmh NW 5.0 mph8.0 kmh 30.22 in1023.4 mb 0.00 in0.0 mm 0.00 in0.0 mm 0.00 in0.0 mm
08:39 AM 24.2°F-4.3°C 19.8°F-6.8°C 83% 3.0 mph NW4.8 kmh NW 5.0 mph8.0 kmh 30.23 in1023.7 mb 0.00 in0.0 mm 0.00 in0.0 mm 0.00 in0.0 mm
08:45 AM 23.7°F-4.6°C 19.3°F-7.1°C 83% 6.0 mph NW9.7 kmh NW 6.0 mph9.7 kmh 30.23 in1023.7 mb 0.00 in0.0 mm 0.00 in0.0 mm 0.00 in0.0 mm
08:50 AM 23.3°F-4.8°C 18.9°F-7.3°C 83% 5.0 mph NNW8.0 kmh NNW 8.0 mph12.9 kmh 30.23 in1023.7 mb 0.00 in0.0 mm 0.00 in0.0 mm 0.00 in0.0 mm
08:55 AM 23.0°F-5.0°C 18.9°F-7.3°C 84% 2.0 mph NNW3.2 kmh NNW 5.0 mph8.0 kmh 30.23 in1023.7 mb 0.00 in0.0 mm 0.00 in0.0 mm 0.00 in0.0 mm
09:00 AM 22.9°F-5.1°C 18.8°F-7.3°C 84% 3.0 mph NNW4.8 kmh NNW 4.0 mph6.4 kmh 30.23 in1023.7 mb 0.00 in0.0 mm 0.00 in0.0 mm 0.00 in0.0 mm
09:05 AM 22.7°F-5.2°C 18.6°F-7.4°C 84% 4.0 mph NNW6.4 kmh NNW 5.0 mph8.0 kmh 30.23 in1023.7 mb 0.00 in0.0 mm 0.00 in0.0 mm 0.00 in0.0 mm
09:10 AM 22.5°F-5.3°C 18.4°F-7.6°C 84% 5.0 mph NW8.0 kmh NW 5.0 mph8.0 kmh 30.23 in1023.7 mb 0.00 in0.0 mm 0.00 in0.0 mm 0.00 in0.0 mm
09:15 AM 22.3°F-5.4°C 18.2°F-7.7°C 84% 2.0 mph NW3.2 kmh NW 2.0 mph3.2 kmh 30.23 in1023.7 mb 0.00 in0.0 mm 0.00 in0.0 mm 0.00 in0.0 mm
09:20 AM 22.2°F-5.4°C 18.1°F-7.7°C 84% 2.0 mph NW3.2 kmh NW 5.0 mph8.0 kmh 30.24 in1024.0 mb 0.00 in0.0 mm 0.00 in0.0 mm 0.00 in0.0 mm
09:25 AM 22.1°F-5.5°C 18.0°F-7.8°C 84% 2.0 mph NW3.2 kmh NW 4.0 mph6.4 kmh 30.24 in1024.0 mb 0.00 in0.0 mm 0.00 in0.0 mm 0.00 in0.0 mm
09:30 AM 22.0°F-5.6°C 17.9°F-7.8°C 84% Calm Calm 4.0 mph6.4 kmh 30.24 in1024.0 mb 0.00 in0.0 mm 0.00 in0.0 mm 0.00 in0.0 mm
09:34 AM 22.0°F-5.6°C 17.9°F-7.8°C 84% 4.0 mph NNW6.4 kmh NNW 6.0 mph9.7 kmh 30.24 in1024.0 mb 0.00 in0.0 mm 0.00 in0.0 mm 0.00 in0.0 mm
09:39 AM 21.7°F-5.7°C 17.6°F-8.0°C 84% 2.0 mph NNW3.2 kmh NNW 5.0 mph8.0 kmh 30.24 in1024.0 mb 0.00 in0.0 mm 0.00 in0.0 mm 0.00 in0.0 mm
09:44 AM 21.5°F-5.8°C 17.4°F-8.1°C 84% 2.0 mph N3.2 kmh N 6.0 mph9.7 kmh 30.24 in1024.0 mb 0.00 in0.0 mm 0.00 in0.0 mm 0.00 in0.0 mm
09:50 AM 21.4°F-5.9°C 17.3°F-8.2°C 84% 6.0 mph N9.7 kmh N 6.0 mph9.7 kmh 30.24 in1024.0 mb 0.00 in0.0 mm 0.00 in0.0 mm 0.00 in0.0 mm
09:55 AM 21.3°F-5.9°C 17.2°F-8.2°C 84% 3.0 mph NW4.8 kmh NW 5.0 mph8.0 kmh 30.24 in1024.0 mb 0.00 in0.0 mm 0.00 in0.0 mm 0.00 in0.0 mm
10:00 AM 21.2°F-6.0°C 17.1°F-8.3°C 84% 4.0 mph NNW6.4 kmh NNW 8.0 mph12.9 kmh 30.24 in1024.0 mb 0.00 in0.0 mm 0.00 in0.0 mm 0.00 in0.0 mm
10:05 AM 21.1°F-6.1°C 17.0°F-8.3°C 84% Calm Calm 8.0 mph12.9 kmh 30.25 in1024.4 mb 0.00 in0.0 mm 0.00 in0.0 mm 0.00 in0.0 mm
10:10 AM 21.1°F-6.1°C 17.0°F-8.3°C 84% 2.0 mph NNW3.2 kmh NNW 4.0 mph6.4 kmh 30.25 in1024.4 mb 0.00 in0.0 mm 0.00 in0.0 mm 0.00 in0.0 mm
10:15 AM 21.0°F-6.1°C 16.9°F-8.4°C 84% 3.0 mph NNW4.8 kmh NNW 5.0 mph8.0 kmh 30.25 in1024.4 mb 0.00 in0.0 mm 0.00 in0.0 mm 0.00 in0.0 mm
10:20 AM 20.9°F-6.2°C 16.8°F-8.4°C 84% 4.0 mph NNW6.4 kmh NNW 4.0 mph6.4 kmh 30.25 in1024.4 mb 0.00 in0.0 mm 0.00 in0.0 mm 0.00 in0.0 mm
10:25 AM 20.9°F-6.2°C 16.8°F-8.4°C 84% Calm Calm 3.0 mph4.8 kmh 30.25 in1024.4 mb 0.00 in0.0 mm 0.00 in0.0 mm 0.00 in0.0 mm
10:30 AM 20.7°F-6.3°C 16.4°F-8.7°C 83% 3.0 mph NNW4.8 kmh NNW 4.0 mph6.4 kmh 30.25 in1024.4 mb 0.00 in0.0 mm 0.00 in0.0 mm 0.00 in0.0 mm
10:35 AM 20.7°F-6.3°C 16.4°F-8.7°C 83% 1.0 mph NNW1.6 kmh NNW 3.0 mph4.8 kmh 30.24 in1024.0 mb 0.00 in0.0 mm 0.00 in0.0 mm 0.00 in0.0 mm
10:40 AM 20.7°F-6.3°C 16.4°F-8.7°C 83% 2.0 mph NNW3.2 kmh NNW 2.0 mph3.2 kmh 30.24 in1024.0 mb 0.00 in0.0 mm 0.00 in0.0 mm 0.00 in0.0 mm
10:45 AM 20.7°F-6.3°C 16.4°F-8.7°C 83% 2.0 mph NNW3.2 kmh NNW 4.0 mph6.4 kmh 30.24 in1024.0 mb 0.00 in0.0 mm 0.00 in0.0 mm 0.00 in0.0 mm
10:50 AM 20.7°F-6.3°C 16.4°F-8.7°C 83% Calm Calm 4.0 mph6.4 kmh 30.24 in1024.0 mb 0.00 in0.0 mm 0.00 in0.0 mm 0.00 in0.0 mm
10:54 AM 20.8°F-6.2°C 16.5°F-8.6°C 83% Calm Calm 2.0 mph3.2 kmh 30.24 in1024.0 mb 0.00 in0.0 mm 0.00 in0.0 mm 0.00 in0.0 mm
11:00 AM 20.9°F-6.2°C 16.6°F-8.6°C 83% 1.0 mph N1.6 kmh N 3.0 mph4.8 kmh 30.24 in1024.0 mb 0.00 in0.0 mm 0.00 in0.0 mm 0.00 in0.0 mm
11:05 AM 20.9°F-6.2°C 16.3°F-8.7°C 82% Calm Calm 1.0 mph1.6 kmh 30.25 in1024.4 mb 0.00 in0.0 mm 0.00 in0.0 mm 0.00 in0.0 mm
11:10 AM 21.0°F-6.1°C 16.4°F-8.7°C 82% Calm Calm -- 30.24 in1024.0 mb 0.00 in0.0 mm 0.00 in0.0 mm 0.00 in0.0 mm
11:15 AM 21.2°F-6.0°C 16.6°F-8.6°C 82% 3.0 mph NW4.8 kmh NW 3.0 mph4.8 kmh 30.24 in1024.0 mb 0.00 in0.0 mm 0.00 in0.0 mm 0.00 in0.0 mm
11:20 AM 21.6°F-5.8°C 17.3°F-8.2°C 83% 2.0 mph W3.2 kmh W 3.0 mph4.8 kmh 30.24 in1024.0 mb 0.00 in0.0 mm 0.00 in0.0 mm 0.00 in0.0 mm
11:25 AM 21.7°F-5.7°C 17.1°F-8.3°C 82% 2.0 mph SW3.2 kmh SW 6.0 mph9.7 kmh 30.24 in1024.0 mb 0.00 in0.0 mm 0.00 in0.0 mm 0.00 in0.0 mm
11:30 AM 21.8°F-5.7°C 16.9°F-8.4°C 81% Calm Calm 1.0 mph1.6 kmh 30.24 in1024.0 mb 0.00 in0.0 mm 0.00 in0.0 mm 0.00 in0.0 mm
11:34 AM 22.3°F-5.4°C 17.4°F-8.1°C 81% 2.0 mph SW3.2 kmh SW 6.0 mph9.7 kmh 30.24 in1024.0 mb 0.00 in0.0 mm 0.00 in0.0 mm 0.00 in0.0 mm
11:40 AM 22.7°F-5.2°C 17.5°F-8.1°C 80% 3.0 mph WSW4.8 kmh WSW 3.0 mph4.8 kmh 30.24 in1024.0 mb 0.00 in0.0 mm 0.00 in0.0 mm 0.00 in0.0 mm
11:44 AM 23.0°F-5.0°C 17.5°F-8.1°C 79% 1.0 mph WNW1.6 kmh WNW 4.0 mph6.4 kmh 30.24 in1024.0 mb 0.00 in0.0 mm 0.00 in0.0 mm 0.00 in0.0 mm
11:50 AM 23.1°F-4.9°C 17.6°F-8.0°C 79% 3.0 mph WNW4.8 kmh WNW 6.0 mph9.7 kmh 30.24 in1024.0 mb 0.00 in0.0 mm 0.00 in0.0 mm 0.00 in0.0 mm
11:55 AM 23.1°F-4.9°C 17.3°F-8.2°C 78% 1.0 mph NW1.6 kmh NW 6.0 mph9.7 kmh 30.24 in1024.0 mb 0.00 in0.0 mm 0.00 in0.0 mm 0.00 in0.0 mm
12:00 PM 23.2°F-4.9°C 17.4°F-8.1°C 78% 2.0 mph W3.2 kmh W 3.0 mph4.8 kmh 30.24 in1024.0 mb 0.00 in0.0 mm 0.00 in0.0 mm 0.00 in0.0 mm
12:05 PM 23.3°F-4.8°C 17.5°F-8.1°C 78% 2.0 mph W3.2 kmh W 4.0 mph6.4 kmh 30.24 in1024.0 mb 0.00 in0.0 mm 0.00 in0.0 mm 0.00 in0.0 mm
12:10 PM 23.7°F-4.6°C 18.2°F-7.7°C 79% 2.0 mph SW3.2 kmh SW 7.0 mph11.3 kmh 30.24 in1024.0 mb 0.00 in0.0 mm 0.00 in0.0 mm 0.00 in0.0 mm
12:15 PM 24.3°F-4.3°C 18.4°F-7.6°C 78% 3.0 mph WNW4.8 kmh WNW 6.0 mph9.7 kmh 30.24 in1024.0 mb 0.00 in0.0 mm 0.00 in0.0 mm 0.00 in0.0 mm
12:20 PM 24.8°F-4.0°C 18.6°F-7.4°C 77% Calm Calm 6.0 mph9.7 kmh 30.24 in1024.0 mb 0.00 in0.0 mm 0.00 in0.0 mm 0.00 in0.0 mm
12:25 PM 25.2°F-3.8°C 18.7°F-7.4°C 76% 2.0 mph W3.2 kmh W 4.0 mph6.4 kmh 30.24 in1024.0 mb 0.00 in0.0 mm 0.00 in0.0 mm 0.00 in0.0 mm
12:30 PM 25.1°F-3.8°C 18.3°F-7.6°C 75% Calm Calm 3.0 mph4.8 kmh 30.24 in1024.0 mb 0.00 in0.0 mm 0.00 in0.0 mm 0.00 in0.0 mm
12:35 PM 25.3°F-3.7°C 19.1°F-7.2°C 77% Calm Calm 3.0 mph4.8 kmh 30.24 in1024.0 mb 0.00 in0.0 mm 0.00 in0.0 mm 0.00 in0.0 mm
12:39 PM 25.4°F-3.7°C 18.9°F-7.3°C 76% 1.0 mph NNW1.6 kmh NNW 3.0 mph4.8 kmh 30.24 in1024.0 mb 0.00 in0.0 mm 0.00 in0.0 mm 0.00 in0.0 mm
12:45 PM 25.4°F-3.7°C 18.6°F-7.4°C 75% 4.0 mph WSW6.4 kmh WSW 4.0 mph6.4 kmh 30.24 in1024.0 mb 0.00 in0.0 mm 0.00 in0.0 mm 0.00 in0.0 mm
12:50 PM 25.5°F-3.6°C 18.7°F-7.4°C 75% Calm Calm 4.0 mph6.4 kmh 30.23 in1023.7 mb 0.00 in0.0 mm 0.00 in0.0 mm 0.00 in0.0 mm
12:55 PM 25.6°F-3.6°C 18.8°F-7.3°C 75% 2.0 mph WNW3.2 kmh WNW 4.0 mph6.4 kmh 30.23 in1023.7 mb 0.00 in0.0 mm 0.00 in0.0 mm 0.00 in0.0 mm
01:00 PM 25.6°F-3.6°C 18.8°F-7.3°C 75% 4.0 mph SW6.4 kmh SW 6.0 mph9.7 kmh 30.23 in1023.7 mb 0.00 in0.0 mm 0.00 in0.0 mm 0.00 in0.0 mm
01:05 PM 26.0°F-3.3°C 19.2°F-7.1°C 75% 4.0 mph WSW6.4 kmh WSW 7.0 mph11.3 kmh 30.23 in1023.7 mb 0.00 in0.0 mm 0.00 in0.0 mm 0.00 in0.0 mm
01:10 PM 26.3°F-3.2°C 19.2°F-7.1°C 74% 3.0 mph NW4.8 kmh NW 7.0 mph11.3 kmh 30.22 in1023.4 mb 0.00 in0.0 mm 0.00 in0.0 mm 0.00 in0.0 mm
01:14 PM 26.7°F-2.9°C 19.5°F-6.9°C 74% 1.0 mph SW1.6 kmh SW 5.0 mph8.0 kmh 30.22 in1023.4 mb 0.00 in0.0 mm 0.00 in0.0 mm 0.00 in0.0 mm
01:20 PM 27.2°F-2.7°C 19.7°F-6.8°C 73% 3.0 mph WSW4.8 kmh WSW 5.0 mph8.0 kmh 30.21 in1023.0 mb 0.00 in0.0 mm 0.00 in0.0 mm 0.00 in0.0 mm
01:25 PM 27.6°F-2.4°C 20.4°F-6.4°C 74% Calm Calm 3.0 mph4.8 kmh 30.21 in1023.0 mb 0.00 in0.0 mm 0.00 in0.0 mm 0.00 in0.0 mm
01:30 PM 28.0°F-2.2°C 19.8°F-6.8°C 71% 2.0 mph N3.2 kmh N 3.0 mph4.8 kmh 30.21 in1023.0 mb 0.00 in0.0 mm 0.00 in0.0 mm 0.00 in0.0 mm
01:35 PM 27.9°F-2.3°C 19.7°F-6.8°C 71% Calm Calm 4.0 mph6.4 kmh 30.20 in1022.7 mb 0.00 in0.0 mm 0.00 in0.0 mm 0.00 in0.0 mm
01:40 PM 27.9°F-2.3°C 19.7°F-6.8°C 71% 2.0 mph WSW3.2 kmh WSW 6.0 mph9.7 kmh 30.20 in1022.7 mb 0.00 in0.0 mm 0.00 in0.0 mm 0.00 in0.0 mm
01:45 PM 28.1°F-2.2°C 19.9°F-6.7°C 71% 1.0 mph NW1.6 kmh NW 4.0 mph6.4 kmh 30.20 in1022.7 mb 0.00 in0.0 mm 0.00 in0.0 mm 0.00 in0.0 mm
01:50 PM 28.4°F-2.0°C 19.9°F-6.7°C 70% 4.0 mph W6.4 kmh W 4.0 mph6.4 kmh 30.19 in1022.4 mb 0.00 in0.0 mm 0.00 in0.0 mm 0.00 in0.0 mm
01:55 PM 28.5°F-1.9°C 20.0°F-6.7°C 70% 2.0 mph WNW3.2 kmh WNW 4.0 mph6.4 kmh 30.19 in1022.4 mb 0.00 in0.0 mm 0.00 in0.0 mm 0.00 in0.0 mm
02:00 PM 28.6°F-1.9°C 20.1°F-6.6°C 70% 1.0 mph NW1.6 kmh NW 5.0 mph8.0 kmh 30.19 in1022.4 mb 0.00 in0.0 mm 0.00 in0.0 mm 0.00 in0.0 mm
02:04 PM 28.8°F-1.8°C 20.3°F-6.5°C 70% 3.0 mph WNW4.8 kmh WNW 3.0 mph4.8 kmh 30.19 in1022.4 mb 0.00 in0.0 mm 0.00 in0.0 mm 0.00 in0.0 mm
02:10 PM 28.8°F-1.8°C 19.9°F-6.7°C 69% Calm Calm 4.0 mph6.4 kmh 30.19 in1022.4 mb 0.00 in0.0 mm 0.00 in0.0 mm 0.00 in0.0 mm
02:15 PM 28.8°F-1.8°C 19.9°F-6.7°C 69% 10.0 mph WSW16.1 kmh WSW 10.0 mph16.1 kmh 30.18 in1022.0 mb 0.00 in0.0 mm 0.00 in0.0 mm 0.00 in0.0 mm
02:20 PM 28.6°F-1.9°C 20.1°F-6.6°C 70% 3.0 mph SW4.8 kmh SW 6.0 mph9.7 kmh 30.18 in1022.0 mb 0.00 in0.0 mm 0.00 in0.0 mm 0.00 in0.0 mm
02:25 PM 29.1°F-1.6°C 20.9°F-6.2°C 71% 5.0 mph WSW8.0 kmh WSW 9.0 mph14.5 kmh 30.18 in1022.0 mb 0.00 in0.0 mm 0.00 in0.0 mm 0.00 in0.0 mm
02:30 PM 29.4°F-1.4°C 20.5°F-6.4°C 69% 6.0 mph SW9.7 kmh SW 11.0 mph17.7 kmh 30.18 in1022.0 mb 0.00 in0.0 mm 0.00 in0.0 mm 0.00 in0.0 mm
02:35 PM 29.3°F-1.5°C 20.4°F-6.4°C 69% 2.0 mph WSW3.2 kmh WSW 10.0 mph16.1 kmh 30.17 in1021.7 mb 0.00 in0.0 mm 0.00 in0.0 mm 0.00 in0.0 mm
02:40 PM 30.0°F-1.1°C 21.8°F-5.7°C 71% 9.0 mph WSW14.5 kmh WSW 9.0 mph14.5 kmh 30.17 in1021.7 mb 0.00 in0.0 mm 0.00 in0.0 mm 0.00 in0.0 mm
02:45 PM 29.9°F-1.2°C 20.3°F-6.5°C 67% 16.0 mph SW25.7 kmh SW 17.0 mph27.4 kmh 30.17 in1021.7 mb 0.00 in0.0 mm 0.00 in0.0 mm 0.00 in0.0 mm
02:50 PM 29.7°F-1.3°C 20.5°F-6.4°C 68% 6.0 mph W9.7 kmh W 13.0 mph20.9 kmh 30.17 in1021.7 mb 0.00 in0.0 mm 0.00 in0.0 mm 0.00 in0.0 mm
02:55 PM 29.6°F-1.3°C 20.4°F-6.4°C 68% 11.0 mph SW17.7 kmh SW 17.0 mph27.4 kmh 30.17 in1021.7 mb 0.00 in0.0 mm 0.00 in0.0 mm 0.00 in0.0 mm
03:00 PM 29.6°F-1.3°C 20.4°F-6.4°C 68% 8.0 mph SW12.9 kmh SW 18.0 mph29.0 kmh 30.16 in1021.3 mb 0.00 in0.0 mm 0.00 in0.0 mm 0.00 in0.0 mm
03:05 PM 29.5°F-1.4°C 20.3°F-6.5°C 68% 10.0 mph SW16.1 kmh SW 16.0 mph25.7 kmh 30.16 in1021.3 mb 0.00 in0.0 mm 0.00 in0.0 mm 0.00 in0.0 mm
03:10 PM 29.8°F-1.2°C 20.9°F-6.2°C 69% 9.0 mph SW14.5 kmh SW 11.0 mph17.7 kmh 30.16 in1021.3 mb 0.00 in0.0 mm 0.00 in0.0 mm 0.00 in0.0 mm
03:15 PM 29.9°F-1.2°C 21.0°F-6.1°C 69% 7.0 mph SW11.3 kmh SW 10.0 mph16.1 kmh 30.16 in1021.3 mb 0.00 in0.0 mm 0.00 in0.0 mm 0.00 in0.0 mm
03:20 PM 30.1°F-1.1°C 20.8°F-6.2°C 68% 9.0 mph SW14.5 kmh SW 14.0 mph22.5 kmh 30.15 in1021.0 mb 0.00 in0.0 mm 0.00 in0.0 mm 0.00 in0.0 mm
03:25 PM 29.9°F-1.2°C 21.0°F-6.1°C 69% 8.0 mph SW12.9 kmh SW 14.0 mph22.5 kmh 30.15 in1021.0 mb 0.00 in0.0 mm 0.00 in0.0 mm 0.00 in0.0 mm
03:30 PM 30.0°F-1.1°C 21.4°F-5.9°C 70% 5.0 mph SW8.0 kmh SW 12.0 mph19.3 kmh 30.15 in1021.0 mb 0.00 in0.0 mm 0.00 in0.0 mm 0.00 in0.0 mm
03:35 PM 30.0°F-1.1°C 21.4°F-5.9°C 70% 9.0 mph SW14.5 kmh SW 9.0 mph14.5 kmh 30.14 in1020.7 mb 0.00 in0.0 mm 0.00 in0.0 mm 0.00 in0.0 mm
03:40 PM 30.3°F-0.9°C 21.4°F-5.9°C 69% 5.0 mph SW8.0 kmh SW 12.0 mph19.3 kmh 30.14 in1020.7 mb 0.00 in0.0 mm 0.00 in0.0 mm 0.00 in0.0 mm
03:45 PM 30.7°F-0.7°C 21.8°F-5.7°C 69% 8.0 mph W12.9 kmh W 10.0 mph16.1 kmh 30.14 in1020.7 mb 0.00 in0.0 mm 0.00 in0.0 mm 0.00 in0.0 mm
03:49 PM 30.5°F-0.8°C 21.6°F-5.8°C 69% 4.0 mph SW6.4 kmh SW 15.0 mph24.1 kmh 30.14 in1020.7 mb 0.00 in0.0 mm 0.00 in0.0 mm 0.00 in0.0 mm
03:55 PM 30.9°F-0.6°C 22.3°F-5.4°C 70% 7.0 mph SW11.3 kmh SW 11.0 mph17.7 kmh 30.14 in1020.7 mb 0.00 in0.0 mm 0.00 in0.0 mm 0.00 in0.0 mm
04:00 PM 31.0°F-0.6°C 22.0°F-5.6°C 69% 10.0 mph WSW16.1 kmh WSW 12.0 mph19.3 kmh 30.13 in1020.3 mb 0.00 in0.0 mm 0.00 in0.0 mm 0.00 in0.0 mm
04:04 PM 31.1°F-0.5°C 22.5°F-5.3°C 70% 9.0 mph SW14.5 kmh SW 11.0 mph17.7 kmh 30.13 in1020.3 mb 0.00 in0.0 mm 0.00 in0.0 mm 0.00 in0.0 mm
04:10 PM 31.1°F-0.5°C 22.1°F-5.5°C 69% 3.0 mph SW4.8 kmh SW 10.0 mph16.1 kmh 30.13 in1020.3 mb 0.00 in0.0 mm 0.00 in0.0 mm 0.00 in0.0 mm
04:15 PM 31.4°F-0.3°C 22.8°F-5.1°C 70% 4.0 mph SW6.4 kmh SW 10.0 mph16.1 kmh 30.12 in1020.0 mb 0.00 in0.0 mm 0.00 in0.0 mm 0.00 in0.0 mm
04:20 PM 31.2°F-0.4°C 22.2°F-5.4°C 69% 9.0 mph SW14.5 kmh SW 15.0 mph24.1 kmh 30.12 in1020.0 mb 0.00 in0.0 mm 0.00 in0.0 mm 0.00 in0.0 mm
04:25 PM 30.9°F-0.6°C 21.9°F-5.6°C 69% 11.0 mph SW17.7 kmh SW 12.0 mph19.3 kmh 30.12 in1020.0 mb 0.00 in0.0 mm 0.00 in0.0 mm 0.00 in0.0 mm
04:30 PM 30.8°F-0.7°C 22.2°F-5.4°C 70% 9.0 mph WSW14.5 kmh WSW 14.0 mph22.5 kmh 30.12 in1020.0 mb 0.00 in0.0 mm 0.00 in0.0 mm 0.00 in0.0 mm
04:35 PM 31.0°F-0.6°C 22.4°F-5.3°C 70% 4.0 mph WSW6.4 kmh WSW 9.0 mph14.5 kmh 30.11 in1019.6 mb 0.00 in0.0 mm 0.00 in0.0 mm 0.00 in0.0 mm
04:40 PM 30.9°F-0.6°C 22.6°F-5.2°C 71% 4.0 mph SW6.4 kmh SW 10.0 mph16.1 kmh 30.11 in1019.6 mb 0.00 in0.0 mm 0.00 in0.0 mm 0.00 in0.0 mm
04:45 PM 30.9°F-0.6°C 23.0°F-5.0°C 72% 4.0 mph SW6.4 kmh SW 11.0 mph17.7 kmh 30.11 in1019.6 mb 0.00 in0.0 mm 0.00 in0.0 mm 0.00 in0.0 mm
04:50 PM 30.9°F-0.6°C 23.3°F-4.8°C 73% 6.0 mph SW9.7 kmh SW 12.0 mph19.3 kmh 30.11 in1019.6 mb 0.00 in0.0 mm 0.00 in0.0 mm 0.00 in0.0 mm
04:55 PM 30.8°F-0.7°C 23.5°F-4.7°C 74% 2.0 mph SW3.2 kmh SW 8.0 mph12.9 kmh 30.10 in1019.3 mb 0.00 in0.0 mm 0.00 in0.0 mm 0.00 in0.0 mm
05:00 PM 31.1°F-0.5°C 24.1°F-4.4°C 75% 3.0 mph SW4.8 kmh SW 4.0 mph6.4 kmh 30.10 in1019.3 mb 0.00 in0.0 mm 0.00 in0.0 mm 0.00 in0.0 mm
05:05 PM 31.1°F-0.5°C 24.1°F-4.4°C 75% 3.0 mph S4.8 kmh S 6.0 mph9.7 kmh 30.10 in1019.3 mb 0.00 in0.0 mm 0.00 in0.0 mm 0.00 in0.0 mm
05:10 PM 30.9°F-0.6°C 23.9°F-4.5°C 75% 4.0 mph SW6.4 kmh SW 8.0 mph12.9 kmh 30.09 in1019.0 mb 0.00 in0.0 mm 0.00 in0.0 mm 0.00 in0.0 mm
05:15 PM 30.7°F-0.7°C 24.0°F-4.4°C 76% 1.0 mph SW1.6 kmh SW 6.0 mph9.7 kmh 30.09 in1019.0 mb 0.00 in0.0 mm 0.00 in0.0 mm 0.00 in0.0 mm
05:20 PM 30.7°F-0.7°C 24.0°F-4.4°C 76% 1.0 mph SW1.6 kmh SW 3.0 mph4.8 kmh 30.09 in1019.0 mb 0.00 in0.0 mm 0.00 in0.0 mm 0.00 in0.0 mm
05:24 PM 30.8°F-0.7°C 23.8°F-4.6°C 75% 3.0 mph SW4.8 kmh SW 9.0 mph14.5 kmh 30.09 in1019.0 mb 0.00 in0.0 mm 0.00 in0.0 mm 0.00 in0.0 mm
05:30 PM 30.9°F-0.6°C 23.9°F-4.5°C 75% 6.0 mph S9.7 kmh S 6.0 mph9.7 kmh 30.08 in1018.6 mb 0.00 in0.0 mm 0.00 in0.0 mm 0.00 in0.0 mm
05:35 PM 31.0°F-0.6°C 24.0°F-4.4°C 75% 2.0 mph S3.2 kmh S 6.0 mph9.7 kmh 30.08 in1018.6 mb 0.00 in0.0 mm 0.00 in0.0 mm 0.00 in0.0 mm
05:40 PM 31.1°F-0.5°C 24.4°F-4.2°C 76% Calm Calm 4.0 mph6.4 kmh 30.08 in1018.6 mb 0.00 in0.0 mm 0.00 in0.0 mm 0.00 in0.0 mm
05:45 PM 31.2°F-0.4°C 24.5°F-4.2°C 76% 1.0 mph SSW1.6 kmh SSW 3.0 mph4.8 kmh 30.08 in1018.6 mb 0.00 in0.0 mm 0.00 in0.0 mm 0.00 in0.0 mm
05:49 PM 31.3°F-0.4°C 24.6°F-4.1°C 76% 2.0 mph SW3.2 kmh SW 3.0 mph4.8 kmh 30.07 in1018.3 mb 0.00 in0.0 mm 0.00 in0.0 mm 0.00 in0.0 mm
05:55 PM 31.4°F-0.3°C 24.7°F-4.1°C 76% 3.0 mph SSW4.8 kmh SSW 8.0 mph12.9 kmh 30.07 in1018.3 mb 0.00 in0.0 mm 0.00 in0.0 mm 0.00 in0.0 mm
06:00 PM 31.5°F-0.3°C 24.5°F-4.2°C 75% 5.0 mph SSW8.0 kmh SSW 7.0 mph11.3 kmh 30.07 in1018.3 mb 0.00 in0.0 mm 0.00 in0.0 mm 0.00 in0.0 mm
06:05 PM 31.4°F-0.3°C 25.0°F-3.9°C 77% 4.0 mph SW6.4 kmh SW 7.0 mph11.3 kmh 30.07 in1018.3 mb 0.00 in0.0 mm 0.00 in0.0 mm 0.00 in0.0 mm
06:10 PM 31.2°F-0.4°C 25.2°F-3.8°C 78% 3.0 mph SW4.8 kmh SW 5.0 mph8.0 kmh 30.06 in1017.9 mb 0.00 in0.0 mm 0.00 in0.0 mm 0.00 in0.0 mm
06:14 PM 31.1°F-0.5°C 25.4°F-3.7°C 79% 6.0 mph SSW9.7 kmh SSW 7.0 mph11.3 kmh 30.06 in1017.9 mb 0.00 in0.0 mm 0.00 in0.0 mm 0.00 in0.0 mm
06:20 PM 31.0°F-0.6°C 25.6°F-3.6°C 80% 2.0 mph SSW3.2 kmh SSW 9.0 mph14.5 kmh 30.06 in1017.9 mb 0.00 in0.0 mm 0.00 in0.0 mm 0.00 in0.0 mm
06:25 PM 31.0°F-0.6°C 26.2°F-3.2°C 82% 2.0 mph SE3.2 kmh SE 4.0 mph6.4 kmh 30.06 in1017.9 mb 0.00 in0.0 mm 0.00 in0.0 mm 0.00 in0.0 mm
06:30 PM 30.8°F-0.7°C 26.3°F-3.2°C 83% 1.0 mph S1.6 kmh S 4.0 mph6.4 kmh 30.05 in1017.6 mb 0.00 in0.0 mm 0.00 in0.0 mm 0.00 in0.0 mm
06:35 PM 30.6°F-0.8°C 26.4°F-3.1°C 84% 3.0 mph S4.8 kmh S 5.0 mph8.0 kmh 30.05 in1017.6 mb 0.00 in0.0 mm 0.00 in0.0 mm 0.00 in0.0 mm
06:40 PM 30.5°F-0.8°C 26.3°F-3.2°C 84% 4.0 mph SW6.4 kmh SW 7.0 mph11.3 kmh 30.05 in1017.6 mb 0.00 in0.0 mm 0.00 in0.0 mm 0.00 in0.0 mm
06:45 PM 30.5°F-0.8°C 26.5°F-3.1°C 85% 5.0 mph S8.0 kmh S 10.0 mph16.1 kmh 30.05 in1017.6 mb 0.00 in0.0 mm 0.00 in0.0 mm 0.00 in0.0 mm
06:50 PM 30.5°F-0.8°C 26.5°F-3.1°C 85% 3.0 mph SW4.8 kmh SW 6.0 mph9.7 kmh 30.05 in1017.6 mb 0.00 in0.0 mm 0.00 in0.0 mm 0.00 in0.0 mm
06:54 PM 30.5°F-0.8°C 26.5°F-3.1°C 85% 4.0 mph S6.4 kmh S 5.0 mph8.0 kmh 30.04 in1017.3 mb 0.00 in0.0 mm 0.00 in0.0 mm 0.00 in0.0 mm
06:59 PM 30.5°F-0.8°C 26.5°F-3.1°C 85% 2.0 mph S3.2 kmh S 8.0 mph12.9 kmh 30.04 in1017.3 mb 0.00 in0.0 mm 0.00 in0.0 mm 0.00 in0.0 mm
07:04 PM 30.6°F-0.8°C 26.9°F-2.8°C 86% 7.0 mph S11.3 kmh S 8.0 mph12.9 kmh 30.03 in1016.9 mb 0.00 in0.0 mm 0.00 in0.0 mm 0.00 in0.0 mm
07:10 PM 30.6°F-0.8°C 26.9°F-2.8°C 86% 3.0 mph S4.8 kmh S 11.0 mph17.7 kmh 30.03 in1016.9 mb 0.00 in0.0 mm 0.00 in0.0 mm 0.00 in0.0 mm
07:15 PM 30.6°F-0.8°C 26.9°F-2.8°C 86% 4.0 mph SSW6.4 kmh SSW 7.0 mph11.3 kmh 30.02 in1016.6 mb 0.00 in0.0 mm 0.00 in0.0 mm 0.00 in0.0 mm
07:19 PM 30.7°F-0.7°C 27.0°F-2.8°C 86% 4.0 mph S6.4 kmh S 8.0 mph12.9 kmh 30.02 in1016.6 mb 0.00 in0.0 mm 0.00 in0.0 mm 0.00 in0.0 mm
07:25 PM 30.7°F-0.7°C 27.0°F-2.8°C 86% 4.0 mph S6.4 kmh S 8.0 mph12.9 kmh 30.02 in1016.6 mb 0.00 in0.0 mm 0.00 in0.0 mm 0.00 in0.0 mm
07:30 PM 30.7°F-0.7°C 27.0°F-2.8°C 86% 4.0 mph SSW6.4 kmh SSW 6.0 mph9.7 kmh 30.02 in1016.6 mb 0.00 in0.0 mm 0.00 in0.0 mm 0.00 in0.0 mm
07:35 PM 30.8°F-0.7°C 27.1°F-2.7°C 86% 6.0 mph S9.7 kmh S 9.0 mph14.5 kmh 30.02 in1016.6 mb 0.00 in0.0 mm 0.00 in0.0 mm 0.00 in0.0 mm
07:40 PM 30.8°F-0.7°C 27.1°F-2.7°C 86% 5.0 mph SSE8.0 kmh SSE 6.0 mph9.7 kmh 30.02 in1016.6 mb 0.00 in0.0 mm 0.00 in0.0 mm 0.00 in0.0 mm
07:45 PM 30.8°F-0.7°C 27.1°F-2.7°C 86% 6.0 mph SSE9.7 kmh SSE 9.0 mph14.5 kmh 30.02 in1016.6 mb 0.00 in0.0 mm 0.00 in0.0 mm 0.00 in0.0 mm
07:50 PM 30.8°F-0.7°C 27.4°F-2.6°C 87% 3.0 mph SSE4.8 kmh SSE 9.0 mph14.5 kmh 30.01 in1016.3 mb 0.00 in0.0 mm 0.00 in0.0 mm 0.00 in0.0 mm
07:55 PM 30.9°F-0.6°C 27.5°F-2.5°C 87% 6.0 mph S9.7 kmh S 7.0 mph11.3 kmh 30.01 in1016.3 mb 0.00 in0.0 mm 0.00 in0.0 mm 0.00 in0.0 mm
08:00 PM 30.9°F-0.6°C 27.5°F-2.5°C 87% 5.0 mph SSE8.0 kmh SSE 10.0 mph16.1 kmh 30.01 in1016.3 mb 0.00 in0.0 mm 0.00 in0.0 mm 0.00 in0.0 mm
08:05 PM 31.0°F-0.6°C 27.6°F-2.4°C 87% 5.0 mph S8.0 kmh S 12.0 mph19.3 kmh 30.01 in1016.3 mb 0.00 in0.0 mm 0.00 in0.0 mm 0.00 in0.0 mm
08:10 PM 31.0°F-0.6°C 27.6°F-2.4°C 87% 5.0 mph SW8.0 kmh SW 11.0 mph17.7 kmh 30.01 in1016.3 mb 0.00 in0.0 mm 0.00 in0.0 mm 0.00 in0.0 mm
08:15 PM 31.1°F-0.5°C 27.7°F-2.4°C 87% 8.0 mph SSW12.9 kmh SSW 11.0 mph17.7 kmh 30.01 in1016.3 mb 0.00 in0.0 mm 0.00 in0.0 mm 0.00 in0.0 mm
08:19 PM 31.2°F-0.4°C 27.8°F-2.3°C 87% 5.0 mph SSE8.0 kmh SSE 7.0 mph11.3 kmh 30.01 in1016.3 mb 0.00 in0.0 mm 0.00 in0.0 mm 0.00 in0.0 mm
08:25 PM 31.2°F-0.4°C 27.8°F-2.3°C 87% 11.0 mph S17.7 kmh S 11.0 mph17.7 kmh 30.00 in1015.9 mb 0.00 in0.0 mm 0.00 in0.0 mm 0.00 in0.0 mm
08:30 PM 31.3°F-0.4°C 27.9°F-2.3°C 87% 12.0 mph S19.3 kmh S 12.0 mph19.3 kmh 30.00 in1015.9 mb 0.00 in0.0 mm 0.00 in0.0 mm 0.00 in0.0 mm
08:34 PM 31.4°F-0.3°C 28.0°F-2.2°C 87% 7.0 mph S11.3 kmh S 11.0 mph17.7 kmh 30.00 in1015.9 mb 0.00 in0.0 mm 0.00 in0.0 mm 0.00 in0.0 mm
08:40 PM 31.5°F-0.3°C 28.1°F-2.2°C 87% 5.0 mph S8.0 kmh S 7.0 mph11.3 kmh 30.00 in1015.9 mb 0.00 in0.0 mm 0.00 in0.0 mm 0.00 in0.0 mm
08:45 PM 31.7°F-0.2°C 28.3°F-2.1°C 87% 9.0 mph SSE14.5 kmh SSE 11.0 mph17.7 kmh 30.00 in1015.9 mb 0.00 in0.0 mm 0.00 in0.0 mm 0.00 in0.0 mm
08:50 PM 31.9°F-0.1°C 28.8°F-1.8°C 88% 5.0 mph SSE8.0 kmh SSE 8.0 mph12.9 kmh 30.00 in1015.9 mb 0.00 in0.0 mm 0.00 in0.0 mm 0.00 in0.0 mm
08:55 PM 32.0°F0.0°C 28.6°F-1.9°C 87% 7.0 mph S11.3 kmh S 10.0 mph16.1 kmh 30.00 in1015.9 mb 0.00 in0.0 mm 0.00 in0.0 mm 0.00 in0.0 mm
09:00 PM 32.1°F0.1°C 28.7°F-1.8°C 87% 5.0 mph S8.0 kmh S 13.0 mph20.9 kmh 30.00 in1015.9 mb 0.00 in0.0 mm 0.00 in0.0 mm 0.00 in0.0 mm
09:04 PM 32.3°F0.2°C 29.2°F-1.6°C 88% 4.0 mph SW6.4 kmh SW 11.0 mph17.7 kmh 30.00 in1015.9 mb 0.00 in0.0 mm 0.00 in0.0 mm 0.00 in0.0 mm
09:10 PM 32.3°F0.2°C 29.2°F-1.6°C 88% 4.0 mph SSW6.4 kmh SSW 12.0 mph19.3 kmh 30.00 in1015.9 mb 0.00 in0.0 mm 0.00 in0.0 mm 0.00 in0.0 mm
09:15 PM 32.3°F0.2°C 29.2°F-1.6°C 88% 3.0 mph SSW4.8 kmh SSW 11.0 mph17.7 kmh 30.00 in1015.9 mb 0.00 in0.0 mm 0.00 in0.0 mm 0.00 in0.0 mm
09:20 PM 32.3°F0.2°C 29.2°F-1.6°C 88% 3.0 mph S4.8 kmh S 11.0 mph17.7 kmh 30.00 in1015.9 mb 0.00 in0.0 mm 0.00 in0.0 mm 0.00 in0.0 mm
09:25 PM 32.4°F0.2°C 29.5°F-1.4°C 89% 3.0 mph SSW4.8 kmh SSW 9.0 mph14.5 kmh 30.00 in1015.9 mb 0.00 in0.0 mm 0.00 in0.0 mm 0.00 in0.0 mm
09:29 PM 32.4°F0.2°C 29.5°F-1.4°C 89% 4.0 mph S6.4 kmh S 8.0 mph12.9 kmh 29.99 in1015.6 mb 0.00 in0.0 mm 0.00 in0.0 mm 0.00 in0.0 mm
09:35 PM 32.4°F0.2°C 29.5°F-1.4°C 89% 7.0 mph S11.3 kmh S 9.0 mph14.5 kmh 30.00 in1015.9 mb 0.00 in0.0 mm 0.00 in0.0 mm 0.00 in0.0 mm
09:40 PM 32.4°F0.2°C 29.8°F-1.2°C 90% 8.0 mph SW12.9 kmh SW 8.0 mph12.9 kmh 29.99 in1015.6 mb 0.00 in0.0 mm 0.00 in0.0 mm 0.00 in0.0 mm
09:45 PM 32.5°F0.3°C 29.9°F-1.2°C 90% 6.0 mph SW9.7 kmh SW 10.0 mph16.1 kmh 29.99 in1015.6 mb 0.00 in0.0 mm 0.00 in0.0 mm 0.00 in0.0 mm
09:49 PM 32.5°F0.3°C 29.9°F-1.2°C 90% 5.0 mph SW8.0 kmh SW 6.0 mph9.7 kmh 29.99 in1015.6 mb 0.00 in0.0 mm 0.00 in0.0 mm 0.00 in0.0 mm
09:55 PM 32.6°F0.3°C 30.0°F-1.1°C 90% 6.0 mph WNW9.7 kmh WNW 9.0 mph14.5 kmh 29.99 in1015.6 mb 0.00 in0.0 mm 0.00 in0.0 mm 0.00 in0.0 mm
09:59 PM 32.7°F0.4°C 30.1°F-1.1°C 90% 2.0 mph SW3.2 kmh SW 7.0 mph11.3 kmh 29.99 in1015.6 mb 0.00 in0.0 mm 0.00 in0.0 mm 0.00 in0.0 mm
10:05 PM 32.8°F0.4°C 30.5°F-0.8°C 91% 4.0 mph SW6.4 kmh SW 7.0 mph11.3 kmh 29.99 in1015.6 mb 0.00 in0.0 mm 0.00 in0.0 mm 0.00 in0.0 mm
10:10 PM 32.8°F0.4°C 30.5°F-0.8°C 91% 2.0 mph SSW3.2 kmh SSW 7.0 mph11.3 kmh 29.98 in1015.2 mb 0.00 in0.0 mm 0.00 in0.0 mm 0.00 in0.0 mm
10:15 PM 32.9°F0.5°C 30.6°F-0.8°C 91% 4.0 mph SW6.4 kmh SW 7.0 mph11.3 kmh 29.99 in1015.6 mb 0.00 in0.0 mm 0.00 in0.0 mm 0.00 in0.0 mm
10:20 PM 33.0°F0.6°C 30.7°F-0.7°C 91% 3.0 mph SW4.8 kmh SW 6.0 mph9.7 kmh 29.99 in1015.6 mb 0.00 in0.0 mm 0.00 in0.0 mm 0.00 in0.0 mm
10:25 PM 33.1°F0.6°C 30.8°F-0.7°C 91% 2.0 mph SW3.2 kmh SW 8.0 mph12.9 kmh 29.99 in1015.6 mb 0.00 in0.0 mm 0.00 in0.0 mm 0.00 in0.0 mm
10:29 PM 33.2°F0.7°C 30.9°F-0.6°C 91% 9.0 mph SW14.5 kmh SW 10.0 mph16.1 kmh 29.99 in1015.6 mb 0.00 in0.0 mm 0.00 in0.0 mm 0.00 in0.0 mm
10:35 PM 33.4°F0.8°C 31.1°F-0.5°C 91% 3.0 mph SW4.8 kmh SW 8.0 mph12.9 kmh 29.98 in1015.2 mb 0.00 in0.0 mm 0.00 in0.0 mm 0.00 in0.0 mm
10:39 PM 33.5°F0.8°C 31.2°F-0.4°C 91% 3.0 mph SW4.8 kmh SW 8.0 mph12.9 kmh 29.98 in1015.2 mb 0.00 in0.0 mm 0.00 in0.0 mm 0.00 in0.0 mm
10:45 PM 33.6°F0.9°C 31.3°F-0.4°C 91% 7.0 mph SW11.3 kmh SW 10.0 mph16.1 kmh 29.99 in1015.6 mb 0.00 in0.0 mm 0.00 in0.0 mm 0.00 in0.0 mm
10:50 PM 33.7°F0.9°C 31.4°F-0.3°C 91% 9.0 mph SW14.5 kmh SW 13.0 mph20.9 kmh 29.99 in1015.6 mb 0.00 in0.0 mm 0.00 in0.0 mm 0.00 in0.0 mm
10:55 PM 33.6°F0.9°C 31.3°F-0.4°C 91% 4.0 mph SW6.4 kmh SW 14.0 mph22.5 kmh 29.98 in1015.2 mb 0.00 in0.0 mm 0.00 in0.0 mm 0.00 in0.0 mm
11:00 PM 33.5°F0.8°C 31.2°F-0.4°C 91% 4.0 mph SW6.4 kmh SW 7.0 mph11.3 kmh 29.98 in1015.2 mb 0.00 in0.0 mm 0.00 in0.0 mm 0.00 in0.0 mm
11:05 PM 33.5°F0.8°C 31.2°F-0.4°C 91% 2.0 mph SW3.2 kmh SW 14.0 mph22.5 kmh 29.98 in1015.2 mb 0.00 in0.0 mm 0.00 in0.0 mm 0.00 in0.0 mm